Airport View

Enter AWOS ICAO identifier for current METAR.

ex. KFNL

KEHA 191855Z AUTO 31005KT 10SM CLR 27/15 A2990 RMK AO2 T02720151

19 Jun 2019 19:14

Frequency: 118.025

Phone: 620-697-4973

Other Area AWOS: KGUY - KHQG - KJHN - KSPD

TAF KGUY 191739Z 1918/2018 VRB04KT P6SM FEW250 FM200600 19006KT P6SM SKC FM201700 29010KT P6SM SKC